createdAt,value
2022-09-07T00:00:51.436Z,99.58
2022-09-07T00:03:20.107Z,100.00
2022-09-07T00:05:50.065Z,100.00
2022-09-07T00:08:19.747Z,100.00
2022-09-07T00:10:53.741Z,100.00
2022-09-07T00:13:22.527Z,100.00
2022-09-07T00:15:52.061Z,99.99
2022-09-07T00:18:20.616Z,100.00
2022-09-07T00:20:48.603Z,100.00
2022-09-07T00:23:16.395Z,100.00
2022-09-07T00:25:44.512Z,100.00
2022-09-07T00:28:12.407Z,99.82
2022-09-07T00:30:43.169Z,99.76
2022-09-07T00:33:12.489Z,99.80
2022-09-07T00:35:41.296Z,100.00
2022-09-07T00:38:10.035Z,100.00
2022-09-07T00:40:37.926Z,100.00
2022-09-07T00:43:06.716Z,100.00
2022-09-07T00:45:34.892Z,100.00
2022-09-07T00:48:06.471Z,100.00
2022-09-07T00:50:40.723Z,100.00
2022-09-07T00:53:14.658Z,100.00
2022-09-07T00:55:45.343Z,100.00
2022-09-07T00:58:14.184Z,100.00
2022-09-07T01:00:46.258Z,100.00
2022-09-07T01:03:16.699Z,100.00
2022-09-07T01:05:51.722Z,100.00
2022-09-07T01:08:19.811Z,100.00
2022-09-07T01:10:47.825Z,100.00
2022-09-07T01:13:16.116Z,100.00
2022-09-07T01:15:54.237Z,100.00
2022-09-07T01:18:30.198Z,100.00
2022-09-07T01:21:23.944Z,100.00
2022-09-07T01:24:32.212Z,100.00
2022-09-07T01:27:36.931Z,100.00
2022-09-07T01:30:09.456Z,100.00
2022-09-07T01:32:51.697Z,100.00
2022-09-07T01:35:26.976Z,100.00
2022-09-07T01:38:02.296Z,100.00
2022-09-07T01:40:38.549Z,100.00
2022-09-07T01:43:13.511Z,100.00
2022-09-07T01:45:45.719Z,100.00
2022-09-07T01:48:18.857Z,100.00
2022-09-07T01:50:52.393Z,100.00
2022-09-07T01:53:26.709Z,100.00
2022-09-07T01:55:59.722Z,100.00
2022-09-07T01:58:30.863Z,100.00
2022-09-07T02:01:04.617Z,100.00
2022-09-07T02:03:37.048Z,100.00
2022-09-07T02:06:11.470Z,100.00
2022-09-07T02:08:44.922Z,100.00
2022-09-07T02:11:17.913Z,100.00
2022-09-07T02:13:51.860Z,100.00
2022-09-07T02:16:25.643Z,100.00
2022-09-07T02:18:56.967Z,100.00
2022-09-07T02:21:30.364Z,100.00
2022-09-07T02:24:05.260Z,100.00
2022-09-07T02:26:36.640Z,100.00
2022-09-07T02:29:04.724Z,100.00
2022-09-07T02:31:34.152Z,100.00
2022-09-07T02:34:02.259Z,100.00
2022-09-07T02:36:34.748Z,100.00
2022-09-07T02:39:02.853Z,100.00
2022-09-07T02:41:34.393Z,100.00
2022-09-07T02:44:05.641Z,100.00
2022-09-07T02:46:51.558Z,100.00
2022-09-07T02:49:30.116Z,100.00
2022-09-07T02:52:08.581Z,100.00
2022-09-07T02:54:48.558Z,100.00
2022-09-07T02:57:25.951Z,100.00
2022-09-07T03:00:05.601Z,100.00
2022-09-07T03:02:42.590Z,100.00
2022-09-07T03:05:15.207Z,100.00
2022-09-07T03:07:49.011Z,100.00
2022-09-07T03:10:18.968Z,100.00
2022-09-07T03:12:49.331Z,100.00
2022-09-07T03:15:20.521Z,100.00
2022-09-07T03:17:50.565Z,100.00
2022-09-07T03:20:19.080Z,100.00
2022-09-07T03:22:48.866Z,100.00
2022-09-07T03:25:18.032Z,100.00
2022-09-07T03:27:46.360Z,100.00
2022-09-07T03:30:15.257Z,100.00
2022-09-07T03:32:43.164Z,100.00
2022-09-07T03:35:14.491Z,100.00
2022-09-07T03:37:42.501Z,100.00
2022-09-07T03:40:13.210Z,100.00
2022-09-07T03:42:41.471Z,100.00
2022-09-07T03:45:11.075Z,100.00
2022-09-07T03:47:39.511Z,100.00
2022-09-07T03:50:08.294Z,100.00
2022-09-07T03:52:38.120Z,100.00
2022-09-07T03:55:06.912Z,100.00
2022-09-07T03:57:34.870Z,100.00
2022-09-07T04:00:03.112Z,100.00
2022-09-07T04:02:40.332Z,100.00
2022-09-07T04:05:09.004Z,100.00
2022-09-07T04:07:38.248Z,100.00
2022-09-07T04:10:07.002Z,100.00
2022-09-07T04:12:34.934Z,100.00
2022-09-07T04:15:02.834Z,100.00
2022-09-07T04:17:30.715Z,100.00
2022-09-07T04:19:58.755Z,100.00
2022-09-07T04:22:26.712Z,100.00
2022-09-07T04:24:55.950Z,100.00
2022-09-07T04:27:23.830Z,100.00
2022-09-07T04:29:51.719Z,100.00
2022-09-07T04:32:19.591Z,100.00
2022-09-07T04:34:47.473Z,100.00
2022-09-07T04:37:15.357Z,100.00
2022-09-07T04:39:43.289Z,100.00
2022-09-07T04:42:12.597Z,100.00
2022-09-07T04:44:40.524Z,100.00
2022-09-07T04:47:08.676Z,100.00
2022-09-07T04:49:36.811Z,100.00
2022-09-07T04:52:04.792Z,100.00
2022-09-07T04:54:32.724Z,100.00
2022-09-07T04:57:00.618Z,100.00
2022-09-07T04:59:30.092Z,100.00
2022-09-07T05:01:58.010Z,100.00
2022-09-07T05:04:26.052Z,100.00
2022-09-07T05:06:54.309Z,100.00
2022-09-07T05:09:22.363Z,100.00
2022-09-07T05:11:50.421Z,100.00
2022-09-07T05:14:18.421Z,100.00
2022-09-07T05:16:47.719Z,100.00
2022-09-07T05:19:15.952Z,100.00
2022-09-07T05:21:43.881Z,100.00
2022-09-07T05:24:11.821Z,100.00
2022-09-07T05:26:39.770Z,100.00
2022-09-07T05:31:58.579Z,100.00
2022-09-07T05:36:59.773Z,100.00
2022-09-07T05:39:28.295Z,100.00
2022-09-07T05:41:56.773Z,100.00
2022-09-07T05:47:14.490Z,100.00
2022-09-07T05:49:42.573Z,100.00
2022-09-07T05:52:10.718Z,100.00
2022-09-07T05:54:38.772Z,100.00
2022-09-07T05:57:07.093Z,100.00
2022-09-07T05:59:35.153Z,100.00
2022-09-07T06:02:03.599Z,100.00
2022-09-07T06:04:32.960Z,100.00
2022-09-07T06:12:37.053Z,100.00
2022-09-07T06:15:05.901Z,100.00
2022-09-07T06:17:33.950Z,100.00
2022-09-07T06:20:03.796Z,100.00
2022-09-07T06:22:31.945Z,100.00
2022-09-07T06:25:00.341Z,100.00
2022-09-07T06:27:28.547Z,99.73
2022-09-07T06:29:57.237Z,96.73
2022-09-07T06:35:14.958Z,95.25
2022-09-07T06:37:43.475Z,91.56
2022-09-07T06:40:12.426Z,90.34
2022-09-07T06:42:40.562Z,86.55
2022-09-07T06:45:11.414Z,85.79
2022-09-07T06:47:39.915Z,84.53
2022-09-07T06:50:09.154Z,82.93
2022-09-07T06:55:28.625Z,78.34
2022-09-07T06:57:56.493Z,75.94
2022-09-07T07:00:24.471Z,74.77
2022-09-07T07:02:52.440Z,74.28
2022-09-07T07:05:20.286Z,73.55
2022-09-07T07:07:49.537Z,75.21
2022-09-07T07:10:22.162Z,80.12
2022-09-07T07:12:53.094Z,77.88
2022-09-07T07:15:21.104Z,77.46
2022-09-07T07:17:56.083Z,73.86
2022-09-07T07:20:27.181Z,70.25
2022-09-07T07:22:56.632Z,67.55
2022-09-07T07:25:24.738Z,67.39
2022-09-07T07:27:52.964Z,66.58
2022-09-07T07:30:21.412Z,67.60
2022-09-07T07:32:49.599Z,65.35
2022-09-07T07:35:17.535Z,62.29
2022-09-07T07:37:45.526Z,61.45
2022-09-07T07:40:15.613Z,60.10
2022-09-07T07:42:44.774Z,61.49
2022-09-07T07:48:02.310Z,60.64
2022-09-07T07:50:31.990Z,57.66
2022-09-07T07:55:50.282Z,62.47
2022-09-07T07:58:18.383Z,59.35
2022-09-07T08:00:55.616Z,57.90
2022-09-07T08:03:25.315Z,56.51
2022-09-07T08:05:53.773Z,56.03
2022-09-07T08:08:22.910Z,51.63
2022-09-07T08:10:52.940Z,52.68
2022-09-07T08:13:21.340Z,51.51
2022-09-07T08:15:49.386Z,50.34
2022-09-07T08:18:18.041Z,50.98
2022-09-07T08:20:45.826Z,52.92
2022-09-07T08:23:13.967Z,49.67
2022-09-07T08:25:52.933Z,52.80
2022-09-07T08:28:21.221Z,53.76
2022-09-07T08:30:49.099Z,53.54
2022-09-07T08:33:16.953Z,52.87
2022-09-07T08:35:55.320Z,52.16
2022-09-07T08:38:23.334Z,51.84
2022-09-07T08:40:53.096Z,55.56
2022-09-07T08:43:31.213Z,55.92
2022-09-07T08:46:06.624Z,56.73
2022-09-07T08:48:35.831Z,55.94
2022-09-07T08:51:11.717Z,55.39
2022-09-07T08:53:46.938Z,55.03
2022-09-07T08:56:22.859Z,53.12
2022-09-07T08:58:53.126Z,51.50
2022-09-07T09:01:38.807Z,50.81
2022-09-07T09:04:16.544Z,49.36
2022-09-07T09:06:52.389Z,47.76
2022-09-07T09:09:29.340Z,45.70
2022-09-07T09:12:10.436Z,46.84
2022-09-07T09:14:48.967Z,45.32
2022-09-07T09:17:28.774Z,46.62
2022-09-07T09:20:03.439Z,49.70
2022-09-07T09:22:31.367Z,51.19
2022-09-07T09:25:06.767Z,45.63
2022-09-07T09:27:35.992Z,43.42
2022-09-07T09:30:12.338Z,44.91
2022-09-07T09:32:42.174Z,46.67
2022-09-07T09:35:16.786Z,46.68
2022-09-07T09:37:45.204Z,46.60
2022-09-07T09:40:25.337Z,50.35
2022-09-07T09:43:03.396Z,47.35
2022-09-07T09:46:12.044Z,48.33
2022-09-07T09:48:32.379Z,46.63
2022-09-07T09:53:58.108Z,44.61
2022-09-07T09:56:39.795Z,44.99
2022-09-07T10:05:31.306Z,43.81
2022-09-07T10:07:59.271Z,44.87
2022-09-07T10:10:28.745Z,46.22
2022-09-07T10:12:57.381Z,45.48
2022-09-07T10:15:32.863Z,44.63
2022-09-07T10:18:05.890Z,46.28
2022-09-07T10:20:36.506Z,48.06
2022-09-07T10:23:05.743Z,49.92
2022-09-07T10:25:36.356Z,50.48
2022-09-07T10:28:15.138Z,50.02
2022-09-07T10:30:56.348Z,48.87
2022-09-07T10:33:31.770Z,50.23
2022-09-07T10:36:08.210Z,49.19
2022-09-07T10:38:42.105Z,45.88
2022-09-07T10:41:12.209Z,42.55
2022-09-07T10:43:44.389Z,41.73
2022-09-07T10:49:24.894Z,40.63
2022-09-07T10:52:01.443Z,40.88
2022-09-07T10:54:39.132Z,41.37
2022-09-07T10:57:24.142Z,40.20
2022-09-07T11:00:14.686Z,41.11
2022-09-07T11:03:29.326Z,40.56
2022-09-07T11:06:09.091Z,39.05
2022-09-07T11:14:32.568Z,36.96
2022-09-07T11:17:04.903Z,34.23
2022-09-07T11:19:40.876Z,31.49
2022-09-07T11:22:20.065Z,33.72
2022-09-07T11:27:46.843Z,34.97
2022-09-07T11:30:20.722Z,34.08
2022-09-07T11:32:58.084Z,33.93
2022-09-07T11:35:33.249Z,34.24
2022-09-07T11:38:06.285Z,33.66
2022-09-07T11:40:37.273Z,35.11
2022-09-07T11:43:23.415Z,35.09
2022-09-07T11:45:55.440Z,34.39
2022-09-07T11:48:31.324Z,33.02
2022-09-07T11:51:04.450Z,32.60
2022-09-07T11:53:35.643Z,34.12
2022-09-07T11:56:06.452Z,35.02
2022-09-07T11:58:51.778Z,37.03
2022-09-07T12:01:31.602Z,38.47
2022-09-07T12:04:24.814Z,39.08
2022-09-07T12:07:09.553Z,38.91
2022-09-07T12:09:48.269Z,40.58
2022-09-07T12:12:37.408Z,41.46
2022-09-07T12:15:20.411Z,40.99
2022-09-07T12:18:02.704Z,39.58
2022-09-07T12:20:41.136Z,39.94
2022-09-07T12:23:27.121Z,40.67
2022-09-07T12:26:33.481Z,40.78
2022-09-07T12:29:20.021Z,41.45
2022-09-07T12:31:58.663Z,40.87
2022-09-07T12:34:51.705Z,39.92
2022-09-07T12:37:43.418Z,40.96
2022-09-07T12:41:01.320Z,39.79
2022-09-07T12:43:35.135Z,37.37
2022-09-07T12:46:04.525Z,38.42
2022-09-07T12:48:54.675Z,37.04
2022-09-07T12:54:31.664Z,37.76
2022-09-07T13:00:04.351Z,38.65
2022-09-07T13:03:01.991Z,40.53
2022-09-07T13:05:46.421Z,40.59
2022-09-07T13:08:38.945Z,42.05
2022-09-07T13:11:17.937Z,40.67
2022-09-07T13:14:05.438Z,40.21
2022-09-07T13:20:08.317Z,40.54
2022-09-07T13:22:55.214Z,38.71
2022-09-07T13:25:46.493Z,39.28
2022-09-07T13:28:32.588Z,40.20
2022-09-07T13:31:15.195Z,40.17
2022-09-07T13:33:48.806Z,42.21
2022-09-07T13:36:31.123Z,43.13
2022-09-07T13:38:59.555Z,42.51
2022-09-07T13:41:32.995Z,41.07
2022-09-07T13:44:02.568Z,38.31
2022-09-07T13:46:42.656Z,40.69
2022-09-07T13:49:24.973Z,41.10
2022-09-07T13:52:01.848Z,42.64
2022-09-07T13:54:44.232Z,43.29
2022-09-07T13:57:21.042Z,43.68
2022-09-07T13:59:51.161Z,42.25
2022-09-07T14:02:24.624Z,39.50
2022-09-07T14:04:55.282Z,40.26
2022-09-07T14:07:26.119Z,40.50
2022-09-07T14:10:07.157Z,40.32
2022-09-07T14:12:43.811Z,38.08
2022-09-07T14:15:20.061Z,38.80
2022-09-07T14:17:49.121Z,40.67
2022-09-07T14:20:19.124Z,40.61
2022-09-07T14:22:53.038Z,40.77
2022-09-07T14:25:22.671Z,39.89
2022-09-07T14:27:51.109Z,39.50
2022-09-07T14:30:25.564Z,37.99
2022-09-07T14:32:54.886Z,37.99
2022-09-07T14:35:25.804Z,38.97
2022-09-07T14:37:55.880Z,39.55
2022-09-07T14:40:26.096Z,40.92
2022-09-07T14:42:56.190Z,41.32
2022-09-07T14:45:34.835Z,40.70
2022-09-07T14:48:13.896Z,40.57
2022-09-07T14:51:00.859Z,41.50
2022-09-07T14:53:38.465Z,41.80
2022-09-07T14:56:10.771Z,43.29
2022-09-07T14:58:38.514Z,42.91
2022-09-07T15:04:19.055Z,42.91
2022-09-07T15:07:03.006Z,41.69
2022-09-07T15:09:39.124Z,41.40
2022-09-07T15:12:19.209Z,39.81
2022-09-07T15:14:48.631Z,39.26
2022-09-07T15:20:32.119Z,39.86
2022-09-07T15:23:00.110Z,41.37
2022-09-07T15:25:30.562Z,41.01
2022-09-07T15:27:58.437Z,41.16
2022-09-07T15:30:27.248Z,41.73
2022-09-07T15:32:57.306Z,42.67
2022-09-07T15:35:25.745Z,41.94
2022-09-07T15:38:01.763Z,40.79
2022-09-07T15:40:51.289Z,41.68
2022-09-07T15:43:33.410Z,40.11
2022-09-07T15:46:03.497Z,39.12
2022-09-07T15:48:31.996Z,40.44
2022-09-07T15:52:04.934Z,39.37
2022-09-07T15:57:48.331Z,39.45
2022-09-07T15:59:32.546Z,38.73
2022-09-07T16:02:00.699Z,37.47
2022-09-07T16:04:28.811Z,37.20
2022-09-07T16:06:56.653Z,40.29
2022-09-07T16:09:24.493Z,37.54
2022-09-07T16:11:54.041Z,37.53
2022-09-07T16:14:21.833Z,37.90
2022-09-07T16:19:41.019Z,37.49
2022-09-07T16:22:09.572Z,37.53
2022-09-07T16:24:37.461Z,37.38
2022-09-07T16:27:06.792Z,37.78
2022-09-07T16:29:34.510Z,36.13
2022-09-07T16:34:51.016Z,38.41
2022-09-07T16:37:19.022Z,36.67
2022-09-07T16:39:46.834Z,36.69
2022-09-07T16:42:16.004Z,37.21
2022-09-07T16:44:43.809Z,38.21
2022-09-07T16:47:12.662Z,36.90
2022-09-07T16:49:40.462Z,36.81
2022-09-07T16:52:10.970Z,38.17
2022-09-07T16:54:38.773Z,37.90
2022-09-07T16:57:06.689Z,37.14
2022-09-07T16:59:35.769Z,38.71
2022-09-07T17:02:03.925Z,39.39
2022-09-07T17:04:31.737Z,40.16
2022-09-07T17:06:59.456Z,40.12
2022-09-07T17:09:28.584Z,40.27
2022-09-07T17:11:56.341Z,40.96
2022-09-07T17:14:24.062Z,41.08
2022-09-07T17:16:53.193Z,41.57
2022-09-07T17:19:29.444Z,41.46
2022-09-07T17:21:58.309Z,42.70
2022-09-07T17:24:26.182Z,42.75
2022-09-07T17:26:53.874Z,41.84
2022-09-07T17:29:21.879Z,42.21
2022-09-07T17:34:38.784Z,41.75
2022-09-07T17:37:06.682Z,41.40
2022-09-07T17:39:34.541Z,41.67
2022-09-07T17:42:02.510Z,42.63
2022-09-07T17:44:35.425Z,42.82
2022-09-07T17:47:06.048Z,43.13
2022-09-07T17:49:33.755Z,41.61
2022-09-07T17:52:03.381Z,44.42
2022-09-07T17:54:31.873Z,44.31
2022-09-07T17:56:59.738Z,43.86
2022-09-07T18:02:15.465Z,44.67
2022-09-07T18:04:43.717Z,44.67
2022-09-07T18:07:12.956Z,45.03
2022-09-07T18:09:40.756Z,45.27
2022-09-07T18:12:08.699Z,45.17
2022-09-07T18:14:36.410Z,45.53
2022-09-07T18:17:06.086Z,46.08
2022-09-07T18:19:33.896Z,45.67
2022-09-07T18:22:03.758Z,47.30
2022-09-07T18:24:36.847Z,46.72
2022-09-07T18:27:05.263Z,46.97
2022-09-07T18:29:34.375Z,47.06
2022-09-07T18:32:08.285Z,47.14
2022-09-07T18:34:36.948Z,47.84
2022-09-07T18:37:04.941Z,49.18
2022-09-07T18:39:35.483Z,49.07
2022-09-07T18:42:03.668Z,48.68
2022-09-07T18:47:27.698Z,50.68
2022-09-07T18:49:56.992Z,50.51
2022-09-07T18:55:14.176Z,49.72
2022-09-07T18:57:41.979Z,50.24
2022-09-07T19:00:12.368Z,51.49
2022-09-07T19:02:40.244Z,52.03
2022-09-07T19:07:56.953Z,53.23
2022-09-07T19:10:26.353Z,53.23
2022-09-07T19:12:54.026Z,54.06
2022-09-07T19:15:21.740Z,54.32
2022-09-07T19:17:49.797Z,53.83
2022-09-07T19:20:18.376Z,54.35
2022-09-07T19:22:46.224Z,54.57
2022-09-07T19:25:13.967Z,54.76
2022-09-07T19:27:43.126Z,55.46
2022-09-07T19:30:11.882Z,55.26
2022-09-07T19:32:40.352Z,55.42
2022-09-07T19:35:08.740Z,56.28
2022-09-07T19:37:36.669Z,56.42
2022-09-07T19:40:05.839Z,56.58
2022-09-07T19:42:33.617Z,56.83
2022-09-07T19:45:02.825Z,57.85
2022-09-07T19:47:30.869Z,57.05
2022-09-07T19:49:58.654Z,56.87
2022-09-07T19:52:27.856Z,57.44
2022-09-07T19:54:57.057Z,57.26
2022-09-07T19:57:24.785Z,57.71
2022-09-07T19:59:56.602Z,57.97
2022-09-07T20:02:25.912Z,58.34
2022-09-07T20:04:54.034Z,58.22
2022-09-07T20:07:22.012Z,58.83
2022-09-07T20:09:50.989Z,58.64
2022-09-07T20:12:19.796Z,59.01
2022-09-07T20:14:47.584Z,59.43
2022-09-07T20:17:15.342Z,59.92
2022-09-07T20:19:44.396Z,60.16
2022-09-07T20:22:12.219Z,59.97
2022-09-07T20:24:39.948Z,60.65
2022-09-07T20:27:07.636Z,61.15
2022-09-07T20:29:35.407Z,62.00
2022-09-07T20:32:03.564Z,61.63
2022-09-07T20:34:32.487Z,61.29
2022-09-07T20:37:02.044Z,61.99
2022-09-07T20:39:29.869Z,62.02
2022-09-07T20:41:57.684Z,62.54
2022-09-07T20:44:25.474Z,62.71
2022-09-07T20:46:53.737Z,62.70
2022-09-07T20:49:21.671Z,62.48
2022-09-07T20:51:49.493Z,62.72
2022-09-07T20:54:19.040Z,63.54
2022-09-07T20:56:46.824Z,64.15
2022-09-07T20:59:15.255Z,64.86
2022-09-07T21:01:43.054Z,64.21
2022-09-07T21:04:10.848Z,64.94
2022-09-07T21:06:38.903Z,64.69
2022-09-07T21:09:06.712Z,65.29
2022-09-07T21:11:36.547Z,65.09
2022-09-07T21:14:06.953Z,65.60
2022-09-07T21:16:35.829Z,66.98
2022-09-07T21:19:06.188Z,66.84
2022-09-07T21:21:38.952Z,65.82
2022-09-07T21:24:08.499Z,66.25
2022-09-07T21:26:37.668Z,66.63
2022-09-07T21:29:06.036Z,66.24
2022-09-07T21:31:34.965Z,66.32
2022-09-07T21:34:03.444Z,67.27
2022-09-07T21:36:31.733Z,67.57
2022-09-07T21:38:59.419Z,67.70
2022-09-07T21:41:27.425Z,67.55
2022-09-07T21:43:57.676Z,68.58
2022-09-07T21:46:26.129Z,69.60
2022-09-07T21:48:55.854Z,70.61
2022-09-07T21:51:24.406Z,70.47
2022-09-07T21:53:53.305Z,70.84
2022-09-07T21:56:21.764Z,71.11
2022-09-07T21:58:53.663Z,72.11
2022-09-07T22:01:23.745Z,72.93
2022-09-07T22:03:55.450Z,73.21
2022-09-07T22:06:24.076Z,73.68
2022-09-07T22:08:52.264Z,73.69
2022-09-07T22:11:22.368Z,73.83
2022-09-07T22:13:50.635Z,74.30
2022-09-07T22:16:19.108Z,74.59
2022-09-07T22:18:48.757Z,74.81
2022-09-07T22:21:18.793Z,74.97
2022-09-07T22:23:48.866Z,75.61
2022-09-07T22:26:19.787Z,76.54
2022-09-07T22:28:47.876Z,76.74
2022-09-07T22:31:18.280Z,77.41
2022-09-07T22:33:49.067Z,76.30
2022-09-07T22:36:19.452Z,76.68
2022-09-07T22:38:49.385Z,76.97
2022-09-07T22:41:19.184Z,76.66
2022-09-07T22:43:50.659Z,75.96
2022-09-07T22:46:20.075Z,75.76
2022-09-07T22:48:49.969Z,76.00
2022-09-07T22:51:18.147Z,76.05
2022-09-07T22:53:46.210Z,75.83
2022-09-07T22:56:16.058Z,76.01
2022-09-07T22:58:47.686Z,75.60
2022-09-07T23:01:15.898Z,75.59
2022-09-07T23:03:44.571Z,75.96
2022-09-07T23:06:22.742Z,76.29
2022-09-07T23:08:50.561Z,76.29
2022-09-07T23:11:18.383Z,76.59
2022-09-07T23:13:46.373Z,76.18
2022-09-07T23:16:14.774Z,76.49
2022-09-07T23:18:42.849Z,76.76
2022-09-07T23:21:12.176Z,77.25
2022-09-07T23:23:41.370Z,77.29
2022-09-07T23:26:09.185Z,77.67
2022-09-07T23:28:36.972Z,77.73
2022-09-07T23:31:05.175Z,77.25
2022-09-07T23:33:33.174Z,77.39
2022-09-07T23:36:03.198Z,77.57
2022-09-07T23:38:31.256Z,78.10
2022-09-07T23:41:01.160Z,77.74
2022-09-07T23:43:31.397Z,77.87
2022-09-07T23:46:00.188Z,77.87
2022-09-07T23:48:28.557Z,78.18
2022-09-07T23:50:56.381Z,78.10
2022-09-07T23:53:24.575Z,77.63
2022-09-07T23:55:53.532Z,78.18
2022-09-07T23:58:23.586Z,78.00
